sensor_id;sensor_type;location;lat;lon;timestamp;pressure;altitude;pressure_sealevel;temperature;humidity
23574;BME280;11965;53.640;10.050;2023-01-29T00:00:21;102521.47;;;2.33;100.00
23574;BME280;11965;53.640;10.050;2023-01-29T00:02:48;102524.50;;;2.28;100.00
23574;BME280;11965;53.640;10.050;2023-01-29T00:05:15;102517.22;;;2.41;100.00
23574;BME280;11965;53.640;10.050;2023-01-29T00:07:43;102512.09;;;2.37;100.00
23574;BME280;11965;53.640;10.050;2023-01-29T00:10:10;102516.28;;;2.28;100.00
23574;BME280;11965;53.640;10.050;2023-01-29T00:12:37;102508.97;;;2.29;100.00
23574;BME280;11965;53.640;10.050;2023-01-29T00:15:05;102512.19;;;2.35;100.00
23574;BME280;11965;53.640;10.050;2023-01-29T00:17:32;102508.44;;;2.36;100.00
23574;BME280;11965;53.640;10.050;2023-01-29T00:19:59;102499.56;;;2.33;100.00
23574;BME280;11965;53.640;10.050;2023-01-29T00:22:28;102497.66;;;2.20;100.00
23574;BME280;11965;53.640;10.050;2023-01-29T00:24:57;102488.25;;;2.25;100.00
23574;BME280;11965;53.640;10.050;2023-01-29T00:27:24;102479.06;;;2.26;100.00
23574;BME280;11965;53.640;10.050;2023-01-29T00:29:51;102480.03;;;2.25;100.00
23574;BME280;11965;53.640;10.050;2023-01-29T00:32:36;102476.81;;;2.32;100.00
23574;BME280;11965;53.640;10.050;2023-01-29T00:35:04;102473.69;;;2.24;100.00
23574;BME280;11965;53.640;10.050;2023-01-29T00:37:30;102477.59;;;2.34;100.00
23574;BME280;11965;53.640;10.050;2023-01-29T00:39:59;102477.22;;;2.26;100.00
23574;BME280;11965;53.640;10.050;2023-01-29T00:42:26;102473.78;;;2.22;100.00
23574;BME280;11965;53.640;10.050;2023-01-29T00:45:10;102469.22;;;2.23;100.00
23574;BME280;11965;53.640;10.050;2023-01-29T00:47:37;102486.84;;;2.46;100.00
23574;BME280;11965;53.640;10.050;2023-01-29T00:50:08;102480.84;;;2.54;100.00
23574;BME280;11965;53.640;10.050;2023-01-29T00:52:37;102482.03;;;2.50;100.00
23574;BME280;11965;53.640;10.050;2023-01-29T00:55:09;102486.25;;;2.41;100.00
23574;BME280;11965;53.640;10.050;2023-01-29T00:57:37;102491.66;;;2.42;100.00
23574;BME280;11965;53.640;10.050;2023-01-29T01:00:06;102493.50;;;2.42;100.00
23574;BME280;11965;53.640;10.050;2023-01-29T01:02:34;102494.88;;;2.35;100.00
23574;BME280;11965;53.640;10.050;2023-01-29T01:05:19;102496.63;;;2.36;100.00
23574;BME280;11965;53.640;10.050;2023-01-29T01:07:48;102482.94;;;2.36;100.00
23574;BME280;11965;53.640;10.050;2023-01-29T01:10:18;102483.81;;;2.36;100.00
23574;BME280;11965;53.640;10.050;2023-01-29T01:12:54;102495.88;;;2.34;100.00
23574;BME280;11965;53.640;10.050;2023-01-29T01:15:24;102484.94;;;2.34;100.00
23574;BME280;11965;53.640;10.050;2023-01-29T01:17:53;102481.56;;;2.43;100.00
23574;BME280;11965;53.640;10.050;2023-01-29T01:20:21;102479.63;;;2.45;100.00
23574;BME280;11965;53.640;10.050;2023-01-29T01:22:52;102480.78;;;2.55;100.00
23574;BME280;11965;53.640;10.050;2023-01-29T01:25:21;102476.75;;;2.47;100.00
23574;BME280;11965;53.640;10.050;2023-01-29T01:27:51;102490.88;;;2.40;100.00
23574;BME280;11965;53.640;10.050;2023-01-29T01:30:18;102496.25;;;2.42;100.00
23574;BME280;11965;53.640;10.050;2023-01-29T01:32:45;102500.31;;;2.49;100.00
23574;BME280;11965;53.640;10.050;2023-01-29T01:35:12;102497.38;;;2.52;100.00
23574;BME280;11965;53.640;10.050;2023-01-29T01:37:40;102491.91;;;2.52;100.00
23574;BME280;11965;53.640;10.050;2023-01-29T01:40:10;102482.97;;;2.63;100.00
23574;BME280;11965;53.640;10.050;2023-01-29T01:42:43;102490.09;;;2.65;100.00
23574;BME280;11965;53.640;10.050;2023-01-29T01:45:19;102486.91;;;2.59;100.00
23574;BME280;11965;53.640;10.050;2023-01-29T01:47:49;102485.81;;;2.61;100.00
23574;BME280;11965;53.640;10.050;2023-01-29T01:50:32;102480.78;;;2.55;100.00
23574;BME280;11965;53.640;10.050;2023-01-29T01:53:06;102477.47;;;2.50;100.00
23574;BME280;11965;53.640;10.050;2023-01-29T01:55:38;102474.72;;;2.50;100.00
23574;BME280;11965;53.640;10.050;2023-01-29T01:58:13;102472.91;;;2.63;100.00
23574;BME280;11965;53.640;10.050;2023-01-29T02:00:43;102480.19;;;2.50;100.00
23574;BME280;11965;53.640;10.050;2023-01-29T02:03:12;102480.50;;;2.46;100.00
23574;BME280;11965;53.640;10.050;2023-01-29T02:05:59;102475.03;;;2.46;100.00
23574;BME280;11965;53.640;10.050;2023-01-29T02:08:50;102477.47;;;2.50;100.00
23574;BME280;11965;53.640;10.050;2023-01-29T02:11:36;102471.09;;;2.50;100.00
23574;BME280;11965;53.640;10.050;2023-01-29T02:14:05;102471.56;;;2.56;100.00
23574;BME280;11965;53.640;10.050;2023-01-29T02:16:33;102461.91;;;2.51;100.00
23574;BME280;11965;53.640;10.050;2023-01-29T02:19:08;102458.09;;;2.53;100.00
23574;BME280;11965;53.640;10.050;2023-01-29T02:25:17;102451.03;;;2.63;100.00
23574;BME280;11965;53.640;10.050;2023-01-29T02:28:15;102441.00;;;2.77;100.00
23574;BME280;11965;53.640;10.050;2023-01-29T02:30:55;102444.91;;;2.73;100.00
23574;BME280;11965;53.640;10.050;2023-01-29T02:33:33;102441.91;;;2.63;100.00
23574;BME280;11965;53.640;10.050;2023-01-29T02:36:13;102440.09;;;2.76;100.00
23574;BME280;11965;53.640;10.050;2023-01-29T02:38:49;102435.25;;;2.67;100.00
23574;BME280;11965;53.640;10.050;2023-01-29T02:41:27;102433.38;;;2.68;100.00
23574;BME280;11965;53.640;10.050;2023-01-29T02:44:05;102428.16;;;2.77;100.00
23574;BME280;11965;53.640;10.050;2023-01-29T02:46:40;102431.72;;;2.65;100.00
23574;BME280;11965;53.640;10.050;2023-01-29T02:49:21;102425.66;;;2.74;100.00
23574;BME280;11965;53.640;10.050;2023-01-29T02:51:58;102429.56;;;2.70;100.00
23574;BME280;11965;53.640;10.050;2023-01-29T02:54:32;102425.09;;;2.69;100.00
23574;BME280;11965;53.640;10.050;2023-01-29T02:57:09;102416.00;;;2.81;100.00
23574;BME280;11965;53.640;10.050;2023-01-29T02:59:48;102407.69;;;2.83;100.00
23574;BME280;11965;53.640;10.050;2023-01-29T03:02:25;102403.94;;;2.71;100.00
23574;BME280;11965;53.640;10.050;2023-01-29T03:04:59;102399.44;;;2.70;100.00
23574;BME280;11965;53.640;10.050;2023-01-29T03:07:34;102397.13;;;2.64;100.00
23574;BME280;11965;53.640;10.050;2023-01-29T03:10:28;102390.94;;;2.75;100.00
23574;BME280;11965;53.640;10.050;2023-01-29T03:13:04;102389.72;;;2.79;100.00
23574;BME280;11965;53.640;10.050;2023-01-29T03:15:41;102381.16;;;2.71;100.00
23574;BME280;11965;53.640;10.050;2023-01-29T03:18:39;102375.69;;;2.71;100.00
23574;BME280;11965;53.640;10.050;2023-01-29T03:21:17;102378.00;;;2.90;100.00
23574;BME280;11965;53.640;10.050;2023-01-29T03:24:05;102381.94;;;2.73;100.00
23574;BME280;11965;53.640;10.050;2023-01-29T03:26:53;102373.81;;;2.71;100.00
23574;BME280;11965;53.640;10.050;2023-01-29T03:29:44;102377.31;;;2.73;100.00
23574;BME280;11965;53.640;10.050;2023-01-29T03:32:49;102377.22;;;2.75;100.00
23574;BME280;11965;53.640;10.050;2023-01-29T03:35:22;102374.59;;;2.73;100.00
23574;BME280;11965;53.640;10.050;2023-01-29T03:38:04;102374.81;;;2.70;100.00
23574;BME280;11965;53.640;10.050;2023-01-29T03:40:38;102373.72;;;2.73;100.00
23574;BME280;11965;53.640;10.050;2023-01-29T03:43:13;102364.72;;;2.71;100.00
23574;BME280;11965;53.640;10.050;2023-01-29T03:45:57;102363.88;;;2.83;100.00
23574;BME280;11965;53.640;10.050;2023-01-29T03:48:34;102372.19;;;2.81;100.00
23574;BME280;11965;53.640;10.050;2023-01-29T03:51:15;102363.09;;;2.81;100.00
23574;BME280;11965;53.640;10.050;2023-01-29T03:53:52;102371.78;;;2.87;100.00
23574;BME280;11965;53.640;10.050;2023-01-29T03:56:37;102356.97;;;2.90;100.00
23574;BME280;11965;53.640;10.050;2023-01-29T03:59:19;102361.25;;;2.94;100.00
23574;BME280;11965;53.640;10.050;2023-01-29T04:02:10;102358.09;;;2.87;100.00
23574;BME280;11965;53.640;10.050;2023-01-29T04:04:45;102358.28;;;2.84;100.00
23574;BME280;11965;53.640;10.050;2023-01-29T04:07:17;102349.97;;;2.86;100.00
23574;BME280;11965;53.640;10.050;2023-01-29T04:09:59;102345.03;;;2.78;100.00
23574;BME280;11965;53.640;10.050;2023-01-29T04:12:35;102349.94;;;2.73;100.00
23574;BME280;11965;53.640;10.050;2023-01-29T04:15:08;102349.88;;;2.87;100.00
23574;BME280;11965;53.640;10.050;2023-01-29T04:17:40;102344.25;;;2.76;100.00
23574;BME280;11965;53.640;10.050;2023-01-29T04:20:21;102350.72;;;2.75;100.00
23574;BME280;11965;53.640;10.050;2023-01-29T04:22:50;102347.13;;;2.75;100.00
23574;BME280;11965;53.640;10.050;2023-01-29T04:25:21;102357.41;;;2.84;100.00
23574;BME280;11965;53.640;10.050;2023-01-29T04:28:04;102344.94;;;2.80;100.00
23574;BME280;11965;53.640;10.050;2023-01-29T04:30:43;102349.41;;;2.81;100.00
23574;BME280;11965;53.640;10.050;2023-01-29T04:33:24;102348.75;;;2.77;100.00
23574;BME280;11965;53.640;10.050;2023-01-29T04:36:05;102351.16;;;2.69;100.00
23574;BME280;11965;53.640;10.050;2023-01-29T04:38:46;102356.19;;;2.75;100.00
23574;BME280;11965;53.640;10.050;2023-01-29T04:41:21;102356.84;;;2.79;100.00
23574;BME280;11965;53.640;10.050;2023-01-29T04:43:59;102353.03;;;2.81;100.00
23574;BME280;11965;53.640;10.050;2023-01-29T04:46:34;102354.34;;;2.76;100.00
23574;BME280;11965;53.640;10.050;2023-01-29T04:49:20;102371.06;;;2.71;100.00
23574;BME280;11965;53.640;10.050;2023-01-29T04:51:59;102368.03;;;2.76;100.00
23574;BME280;11965;53.640;10.050;2023-01-29T04:54:42;102365.41;;;2.74;100.00
23574;BME280;11965;53.640;10.050;2023-01-29T04:57:21;102366.16;;;2.76;100.00
23574;BME280;11965;53.640;10.050;2023-01-29T04:59:58;102367.16;;;2.75;100.00
23574;BME280;11965;53.640;10.050;2023-01-29T05:02:28;102360.47;;;2.79;100.00
23574;BME280;11965;53.640;10.050;2023-01-29T05:04:58;102351.38;;;2.79;100.00
23574;BME280;11965;53.640;10.050;2023-01-29T05:07:30;102344.59;;;2.72;100.00
23574;BME280;11965;53.640;10.050;2023-01-29T05:09:57;102344.16;;;2.78;100.00
23574;BME280;11965;53.640;10.050;2023-01-29T05:12:28;102338.03;;;2.74;100.00
23574;BME280;11965;53.640;10.050;2023-01-29T05:15:00;102332.41;;;2.63;100.00
23574;BME280;11965;53.640;10.050;2023-01-29T05:17:28;102330.09;;;2.57;100.00
23574;BME280;11965;53.640;10.050;2023-01-29T05:19:56;102326.78;;;2.52;100.00
23574;BME280;11965;53.640;10.050;2023-01-29T05:22:27;102327.03;;;2.61;100.00
23574;BME280;11965;53.640;10.050;2023-01-29T05:24:53;102325.09;;;2.63;100.00
23574;BME280;11965;53.640;10.050;2023-01-29T05:27:30;102347.59;;;2.54;100.00
23574;BME280;11965;53.640;10.050;2023-01-29T05:30:15;102334.56;;;2.45;100.00
23574;BME280;11965;53.640;10.050;2023-01-29T05:32:42;102330.28;;;2.41;100.00
23574;BME280;11965;53.640;10.050;2023-01-29T05:35:09;102327.44;;;2.42;100.00
23574;BME280;11965;53.640;10.050;2023-01-29T05:37:37;102319.47;;;2.52;100.00
23574;BME280;11965;53.640;10.050;2023-01-29T05:40:05;102315.97;;;2.50;100.00
23574;BME280;11965;53.640;10.050;2023-01-29T05:42:33;102318.50;;;2.53;100.00
23574;BME280;11965;53.640;10.050;2023-01-29T05:45:00;102321.19;;;2.40;100.00
23574;BME280;11965;53.640;10.050;2023-01-29T05:47:26;102331.63;;;2.48;100.00
23574;BME280;11965;53.640;10.050;2023-01-29T05:49:53;102329.75;;;2.49;100.00
23574;BME280;11965;53.640;10.050;2023-01-29T05:52:20;102340.38;;;2.53;100.00
23574;BME280;11965;53.640;10.050;2023-01-29T05:54:48;102334.66;;;2.43;100.00
23574;BME280;11965;53.640;10.050;2023-01-29T05:57:15;102334.34;;;2.48;100.00
23574;BME280;11965;53.640;10.050;2023-01-29T05:59:42;102332.13;;;2.40;100.00
23574;BME280;11965;53.640;10.050;2023-01-29T06:02:09;102337.91;;;2.36;100.00
23574;BME280;11965;53.640;10.050;2023-01-29T06:04:36;102327.19;;;2.33;100.00
23574;BME280;11965;53.640;10.050;2023-01-29T06:07:02;102330.22;;;2.55;100.00
23574;BME280;11965;53.640;10.050;2023-01-29T06:09:29;102336.75;;;2.40;100.00
23574;BME280;11965;53.640;10.050;2023-01-29T06:11:58;102325.53;;;2.30;100.00
23574;BME280;11965;53.640;10.050;2023-01-29T06:14:25;102323.28;;;2.37;100.00
23574;BME280;11965;53.640;10.050;2023-01-29T06:16:51;102305.59;;;2.28;100.00
23574;BME280;11965;53.640;10.050;2023-01-29T06:19:18;102307.47;;;2.28;100.00
23574;BME280;11965;53.640;10.050;2023-01-29T06:21:45;102308.03;;;2.33;100.00
23574;BME280;11965;53.640;10.050;2023-01-29T06:24:12;102294.13;;;2.36;100.00
23574;BME280;11965;53.640;10.050;2023-01-29T06:26:39;102287.13;;;2.32;100.00
23574;BME280;11965;53.640;10.050;2023-01-29T06:29:07;102292.91;;;2.27;100.00
23574;BME280;11965;53.640;10.050;2023-01-29T06:31:34;102296.28;;;2.18;100.00
23574;BME280;11965;53.640;10.050;2023-01-29T06:34:01;102278.31;;;2.14;100.00
23574;BME280;11965;53.640;10.050;2023-01-29T06:36:29;102274.16;;;2.08;100.00
23574;BME280;11965;53.640;10.050;2023-01-29T06:38:55;102266.72;;;2.10;100.00
23574;BME280;11965;53.640;10.050;2023-01-29T06:41:23;102259.91;;;2.03;100.00
23574;BME280;11965;53.640;10.050;2023-01-29T06:43:50;102269.19;;;2.01;100.00
23574;BME280;11965;53.640;10.050;2023-01-29T06:46:19;102266.47;;;2.01;100.00
23574;BME280;11965;53.640;10.050;2023-01-29T06:48:46;102268.13;;;2.03;100.00
23574;BME280;11965;53.640;10.050;2023-01-29T06:51:12;102262.00;;;1.99;100.00
23574;BME280;11965;53.640;10.050;2023-01-29T06:53:40;102253.91;;;2.11;100.00
23574;BME280;11965;53.640;10.050;2023-01-29T06:56:07;102251.84;;;2.14;100.00
23574;BME280;11965;53.640;10.050;2023-01-29T06:58:36;102257.22;;;2.16;100.00
23574;BME280;11965;53.640;10.050;2023-01-29T07:01:04;102264.56;;;2.15;100.00
23574;BME280;11965;53.640;10.050;2023-01-29T07:03:33;102258.53;;;2.10;100.00
23574;BME280;11965;53.640;10.050;2023-01-29T07:06:00;102254.69;;;2.13;100.00
23574;BME280;11965;53.640;10.050;2023-01-29T07:08:27;102255.56;;;2.13;100.00
23574;BME280;11965;53.640;10.050;2023-01-29T07:10:58;102259.47;;;2.09;100.00
23574;BME280;11965;53.640;10.050;2023-01-29T07:13:25;102271.13;;;2.13;100.00
23574;BME280;11965;53.640;10.050;2023-01-29T07:15:52;102274.81;;;2.12;100.00
23574;BME280;11965;53.640;10.050;2023-01-29T07:18:19;102270.78;;;2.17;100.00
23574;BME280;11965;53.640;10.050;2023-01-29T07:20:47;102272.91;;;2.27;100.00
23574;BME280;11965;53.640;10.050;2023-01-29T07:23:14;102268.38;;;2.26;100.00
23574;BME280;11965;53.640;10.050;2023-01-29T07:25:42;102265.66;;;2.26;100.00
23574;BME280;11965;53.640;10.050;2023-01-29T07:28:09;102268.16;;;2.16;100.00
23574;BME280;11965;53.640;10.050;2023-01-29T07:30:36;102257.44;;;2.13;100.00
23574;BME280;11965;53.640;10.050;2023-01-29T07:33:05;102248.16;;;2.15;100.00
23574;BME280;11965;53.640;10.050;2023-01-29T07:35:35;102244.63;;;2.13;100.00
23574;BME280;11965;53.640;10.050;2023-01-29T07:38:04;102232.03;;;2.11;100.00
23574;BME280;11965;53.640;10.050;2023-01-29T07:40:31;102224.56;;;2.00;100.00
23574;BME280;11965;53.640;10.050;2023-01-29T07:42:58;102233.38;;;2.18;100.00
23574;BME280;11965;53.640;10.050;2023-01-29T07:45:26;102229.75;;;2.05;100.00
23574;BME280;11965;53.640;10.050;2023-01-29T07:47:54;102233.28;;;1.92;100.00
23574;BME280;11965;53.640;10.050;2023-01-29T07:50:22;102230.03;;;2.00;100.00
23574;BME280;11965;53.640;10.050;2023-01-29T07:52:49;102233.50;;;1.89;100.00
23574;BME280;11965;53.640;10.050;2023-01-29T07:55:17;102234.06;;;1.94;100.00
23574;BME280;11965;53.640;10.050;2023-01-29T07:57:44;102230.25;;;1.97;100.00
23574;BME280;11965;53.640;10.050;2023-01-29T08:00:13;102232.56;;;2.03;100.00
23574;BME280;11965;53.640;10.050;2023-01-29T08:02:42;102229.53;;;2.08;100.00
23574;BME280;11965;53.640;10.050;2023-01-29T08:05:09;102221.19;;;2.09;100.00
23574;BME280;11965;53.640;10.050;2023-01-29T08:07:36;102228.53;;;2.09;100.00
23574;BME280;11965;53.640;10.050;2023-01-29T08:10:03;102224.41;;;2.16;100.00
23574;BME280;11965;53.640;10.050;2023-01-29T08:12:32;102227.34;;;2.13;100.00
23574;BME280;11965;53.640;10.050;2023-01-29T08:14:58;102227.47;;;2.24;100.00
23574;BME280;11965;53.640;10.050;2023-01-29T08:17:25;102214.13;;;2.32;100.00
23574;BME280;11965;53.640;10.050;2023-01-29T08:19:52;102218.94;;;2.29;100.00
23574;BME280;11965;53.640;10.050;2023-01-29T08:22:19;102224.97;;;2.34;100.00
23574;BME280;11965;53.640;10.050;2023-01-29T08:24:46;102229.00;;;2.28;100.00
23574;BME280;11965;53.640;10.050;2023-01-29T08:27:13;102225.59;;;2.25;100.00
23574;BME280;11965;53.640;10.050;2023-01-29T08:29:41;102227.03;;;2.30;100.00
23574;BME280;11965;53.640;10.050;2023-01-29T08:32:09;102221.34;;;2.20;100.00
23574;BME280;11965;53.640;10.050;2023-01-29T08:34:36;102209.84;;;2.28;100.00
23574;BME280;11965;53.640;10.050;2023-01-29T08:37:03;102219.59;;;2.32;100.00
23574;BME280;11965;53.640;10.050;2023-01-29T08:39:30;102222.16;;;2.48;100.00
23574;BME280;11965;53.640;10.050;2023-01-29T08:41:57;102218.38;;;2.36;100.00
23574;BME280;11965;53.640;10.050;2023-01-29T08:44:24;102222.13;;;2.35;100.00
23574;BME280;11965;53.640;10.050;2023-01-29T08:46:52;102221.03;;;2.38;100.00
23574;BME280;11965;53.640;10.050;2023-01-29T08:49:19;102219.16;;;2.38;100.00
23574;BME280;11965;53.640;10.050;2023-01-29T08:51:45;102215.03;;;2.46;100.00
23574;BME280;11965;53.640;10.050;2023-01-29T08:54:12;102219.72;;;2.43;100.00
23574;BME280;11965;53.640;10.050;2023-01-29T08:56:39;102220.72;;;2.42;100.00
23574;BME280;11965;53.640;10.050;2023-01-29T08:59:06;102217.75;;;2.46;100.00
23574;BME280;11965;53.640;10.050;2023-01-29T09:01:33;102212.94;;;2.75;100.00
23574;BME280;11965;53.640;10.050;2023-01-29T09:04:01;102217.41;;;2.63;100.00
23574;BME280;11965;53.640;10.050;2023-01-29T09:06:28;102223.03;;;2.74;100.00
23574;BME280;11965;53.640;10.050;2023-01-29T09:08:55;102228.28;;;2.64;100.00
23574;BME280;11965;53.640;10.050;2023-01-29T09:11:22;102229.91;;;2.54;100.00
23574;BME280;11965;53.640;10.050;2023-01-29T09:13:48;102220.59;;;2.44;100.00
23574;BME280;11965;53.640;10.050;2023-01-29T09:16:15;102221.38;;;2.59;100.00
23574;BME280;11965;53.640;10.050;2023-01-29T09:18:42;102216.34;;;2.53;100.00
23574;BME280;11965;53.640;10.050;2023-01-29T09:21:10;102211.63;;;2.55;100.00
23574;BME280;11965;53.640;10.050;2023-01-29T09:23:37;102219.59;;;2.58;100.00
23574;BME280;11965;53.640;10.050;2023-01-29T09:26:06;102209.44;;;2.73;100.00
23574;BME280;11965;53.640;10.050;2023-01-29T09:28:33;102201.13;;;2.74;100.00
23574;BME280;11965;53.640;10.050;2023-01-29T09:31:00;102199.81;;;2.80;100.00
23574;BME280;11965;53.640;10.050;2023-01-29T09:33:27;102201.31;;;2.71;100.00
23574;BME280;11965;53.640;10.050;2023-01-29T09:35:55;102198.81;;;2.68;100.00
23574;BME280;11965;53.640;10.050;2023-01-29T09:38:23;102194.78;;;2.61;100.00
23574;BME280;11965;53.640;10.050;2023-01-29T09:40:59;102196.06;;;2.68;100.00
23574;BME280;11965;53.640;10.050;2023-01-29T09:43:40;102194.97;;;2.71;100.00
23574;BME280;11965;53.640;10.050;2023-01-29T09:46:17;102194.75;;;2.74;100.00
23574;BME280;11965;53.640;10.050;2023-01-29T09:48:48;102190.59;;;2.81;100.00
23574;BME280;11965;53.640;10.050;2023-01-29T09:51:26;102172.06;;;2.84;100.00
23574;BME280;11965;53.640;10.050;2023-01-29T09:54:05;102168.13;;;2.88;100.00
23574;BME280;11965;53.640;10.050;2023-01-29T09:56:36;102161.78;;;2.88;100.00
23574;BME280;11965;53.640;10.050;2023-01-29T09:59:03;102153.34;;;2.91;100.00
23574;BME280;11965;53.640;10.050;2023-01-29T10:01:35;102149.84;;;2.89;100.00
23574;BME280;11965;53.640;10.050;2023-01-29T10:04:29;102132.75;;;2.98;100.00
23574;BME280;11965;53.640;10.050;2023-01-29T10:07:21;102137.09;;;3.01;100.00
23574;BME280;11965;53.640;10.050;2023-01-29T10:10:17;102137.50;;;3.07;100.00
23574;BME280;11965;53.640;10.050;2023-01-29T10:13:04;102129.84;;;3.13;100.00
23574;BME280;11965;53.640;10.050;2023-01-29T10:15:43;102124.22;;;3.14;100.00
23574;BME280;11965;53.640;10.050;2023-01-29T10:18:47;102124.69;;;3.08;100.00
23574;BME280;11965;53.640;10.050;2023-01-29T10:24:25;102111.97;;;3.20;100.00
23574;BME280;11965;53.640;10.050;2023-01-29T10:26:59;102103.75;;;3.20;100.00
23574;BME280;11965;53.640;10.050;2023-01-29T10:29:29;102096.19;;;3.10;100.00
23574;BME280;11965;53.640;10.050;2023-01-29T10:32:01;102100.34;;;3.16;100.00
23574;BME280;11965;53.640;10.050;2023-01-29T10:34:37;102091.53;;;3.24;100.00
23574;BME280;11965;53.640;10.050;2023-01-29T10:37:14;102096.38;;;3.44;100.00
23574;BME280;11965;53.640;10.050;2023-01-29T10:39:43;102093.88;;;3.41;100.00
23574;BME280;11965;53.640;10.050;2023-01-29T10:42:22;102093.47;;;3.35;100.00
23574;BME280;11965;53.640;10.050;2023-01-29T10:45:11;102087.59;;;3.28;100.00
23574;BME280;11965;53.640;10.050;2023-01-29T10:48:02;102078.69;;;3.24;100.00
23574;BME280;11965;53.640;10.050;2023-01-29T10:50:49;102084.13;;;3.37;100.00
23574;BME280;11965;53.640;10.050;2023-01-29T10:53:32;102080.91;;;3.19;100.00
23574;BME280;11965;53.640;10.050;2023-01-29T10:56:17;102076.25;;;3.32;100.00
23574;BME280;11965;53.640;10.050;2023-01-29T10:58:54;102061.91;;;3.29;100.00
23574;BME280;11965;53.640;10.050;2023-01-29T11:01:24;102063.66;;;3.30;100.00
23574;BME280;11965;53.640;10.050;2023-01-29T11:03:59;102062.16;;;3.26;100.00
23574;BME280;11965;53.640;10.050;2023-01-29T11:06:35;102068.41;;;3.28;100.00
23574;BME280;11965;53.640;10.050;2023-01-29T11:09:23;102064.66;;;3.29;100.00
23574;BME280;11965;53.640;10.050;2023-01-29T11:11:58;102058.06;;;3.31;100.00
23574;BME280;11965;53.640;10.050;2023-01-29T11:14:32;102055.63;;;3.40;100.00
23574;BME280;11965;53.640;10.050;2023-01-29T11:17:03;102045.53;;;3.40;100.00
23574;BME280;11965;53.640;10.050;2023-01-29T11:19:36;102050.50;;;3.46;100.00
23574;BME280;11965;53.640;10.050;2023-01-29T11:22:03;102040.75;;;3.31;100.00
23574;BME280;11965;53.640;10.050;2023-01-29T11:24:33;102047.97;;;3.32;100.00
23574;BME280;11965;53.640;10.050;2023-01-29T11:27:12;102045.38;;;3.30;100.00
23574;BME280;11965;53.640;10.050;2023-01-29T11:29:42;102035.81;;;3.36;100.00
23574;BME280;11965;53.640;10.050;2023-01-29T11:32:23;102036.25;;;3.30;100.00
23574;BME280;11965;53.640;10.050;2023-01-29T11:35:00;102029.13;;;3.27;100.00
23574;BME280;11965;53.640;10.050;2023-01-29T11:37:33;102033.06;;;3.36;100.00
23574;BME280;11965;53.640;10.050;2023-01-29T11:40:04;102019.09;;;3.28;100.00
23574;BME280;11965;53.640;10.050;2023-01-29T11:42:49;102026.94;;;3.32;100.00
23574;BME280;11965;53.640;10.050;2023-01-29T11:45:26;102009.09;;;3.27;100.00
23574;BME280;11965;53.640;10.050;2023-01-29T11:47:55;102019.09;;;3.28;100.00
23574;BME280;11965;53.640;10.050;2023-01-29T11:50:25;102022.31;;;3.33;100.00
23574;BME280;11965;53.640;10.050;2023-01-29T11:52:54;102010.81;;;3.52;100.00
23574;BME280;11965;53.640;10.050;2023-01-29T11:55:23;101995.31;;;3.40;100.00
23574;BME280;11965;53.640;10.050;2023-01-29T11:57:58;101999.28;;;3.36;100.00
23574;BME280;11965;53.640;10.050;2023-01-29T12:00:32;101992.22;;;3.44;100.00
23574;BME280;11965;53.640;10.050;2023-01-29T12:03:06;101984.97;;;3.43;100.00
23574;BME280;11965;53.640;10.050;2023-01-29T12:05:40;101976.03;;;3.41;100.00
23574;BME280;11965;53.640;10.050;2023-01-29T12:08:18;101977.94;;;3.63;100.00
23574;BME280;11965;53.640;10.050;2023-01-29T12:10:47;101970.56;;;3.52;100.00
23574;BME280;11965;53.640;10.050;2023-01-29T12:13:26;101971.94;;;3.58;100.00
23574;BME280;11965;53.640;10.050;2023-01-29T12:16:14;101961.94;;;3.46;100.00
23574;BME280;11965;53.640;10.050;2023-01-29T12:18:50;101953.00;;;3.55;100.00
23574;BME280;11965;53.640;10.050;2023-01-29T12:21:26;101952.63;;;3.60;100.00
23574;BME280;11965;53.640;10.050;2023-01-29T12:24:02;101952.09;;;3.54;100.00
23574;BME280;11965;53.640;10.050;2023-01-29T12:26:33;101947.53;;;3.55;100.00
23574;BME280;11965;53.640;10.050;2023-01-29T12:29:15;101932.28;;;3.40;100.00
23574;BME280;11965;53.640;10.050;2023-01-29T12:31:58;101943.63;;;3.46;100.00
23574;BME280;11965;53.640;10.050;2023-01-29T12:34:36;101932.03;;;3.43;100.00
23574;BME280;11965;53.640;10.050;2023-01-29T12:37:16;101923.56;;;3.46;100.00
23574;BME280;11965;53.640;10.050;2023-01-29T12:39:45;101919.72;;;3.48;100.00
23574;BME280;11965;53.640;10.050;2023-01-29T12:42:18;101911.63;;;3.58;100.00
23574;BME280;11965;53.640;10.050;2023-01-29T12:44:52;101915.75;;;3.52;100.00
23574;BME280;11965;53.640;10.050;2023-01-29T12:47:29;101908.13;;;3.56;100.00
23574;BME280;11965;53.640;10.050;2023-01-29T12:50:04;101892.94;;;3.52;100.00
23574;BME280;11965;53.640;10.050;2023-01-29T12:52:38;101899.91;;;3.45;100.00
23574;BME280;11965;53.640;10.050;2023-01-29T12:55:12;101889.81;;;3.45;100.00
23574;BME280;11965;53.640;10.050;2023-01-29T12:57:47;101890.81;;;3.56;100.00
23574;BME280;11965;53.640;10.050;2023-01-29T13:00:22;101887.94;;;3.46;100.00
23574;BME280;11965;53.640;10.050;2023-01-29T13:02:58;101878.47;;;3.39;100.00
23574;BME280;11965;53.640;10.050;2023-01-29T13:05:30;101883.22;;;3.48;100.00
23574;BME280;11965;53.640;10.050;2023-01-29T13:08:06;101872.59;;;3.54;100.00
23574;BME280;11965;53.640;10.050;2023-01-29T13:10:38;101866.13;;;3.33;100.00
23574;BME280;11965;53.640;10.050;2023-01-29T13:13:14;101869.25;;;3.28;100.00
23574;BME280;11965;53.640;10.050;2023-01-29T13:15:46;101868.50;;;3.38;100.00